Terminal Aerodrome Forecast
Issued by NWS

Home | Current Version | Previous Version | Text Only | Print | Product List | Glossary On
Versions: 1 2 3 4 5 6 7 8 9 10 11 12 13 14 15 16 17 18
000
FTUS46 KMFR 241123
TAFRBG
TAF
KRBG 241123Z 2412/2512 00000KT P6SM BKN010 BKN020 OVC040
     FM241800 VRB03KT P6SM SCT020 BKN030
     FM242100 36010KT P6SM SCT040
     FM250200 VRB03KT P6SM SCT040
     FM250600 00000KT P6SM OVC030=

USA.gov is the U.S. government's official web portal to all federal, state and local government web resources and services.